createdAt,value
2018-02-24T00:00:30.806Z,68.92
2018-02-24T00:02:59.352Z,68.89
2018-02-24T00:05:27.865Z,68.85
2018-02-24T00:07:56.318Z,68.89
2018-02-24T00:10:24.781Z,68.96
2018-02-24T00:12:53.317Z,68.97
2018-02-24T00:15:21.782Z,69.63
2018-02-24T00:17:50.288Z,70.09
2018-02-24T00:20:18.774Z,70.30
2018-02-24T00:22:47.269Z,69.75
2018-02-24T00:25:15.769Z,71.42
2018-02-24T00:27:44.266Z,70.47
2018-02-24T00:30:12.716Z,70.85
2018-02-24T00:32:41.185Z,70.38
2018-02-24T00:35:09.699Z,70.73
2018-02-24T00:37:38.198Z,70.57
2018-02-24T00:40:06.683Z,71.75
2018-02-24T00:42:35.222Z,70.88
2018-02-24T00:45:03.681Z,71.20
2018-02-24T00:47:32.146Z,70.72
2018-02-24T00:50:00.663Z,70.69
2018-02-24T00:52:29.118Z,70.34
2018-02-24T00:54:57.654Z,70.77
2018-02-24T00:57:26.135Z,70.28
2018-02-24T00:59:54.626Z,70.57
2018-02-24T01:02:23.158Z,70.24
2018-02-24T01:04:51.704Z,70.54
2018-02-24T01:07:20.189Z,70.65
2018-02-24T01:09:48.730Z,70.58
2018-02-24T01:12:17.189Z,71.44
2018-02-24T01:14:45.717Z,70.77
2018-02-24T01:17:14.213Z,70.61
2018-02-24T01:19:42.742Z,70.42
2018-02-24T01:22:11.201Z,70.67
2018-02-24T01:24:39.706Z,70.20
2018-02-24T01:27:08.174Z,70.87
2018-02-24T01:29:36.646Z,70.91
2018-02-24T01:32:05.197Z,71.65
2018-02-24T01:34:33.717Z,70.62
2018-02-24T01:37:02.210Z,71.25
2018-02-24T01:39:30.703Z,71.49
2018-02-24T01:41:59.162Z,71.13
2018-02-24T01:44:27.688Z,70.71
2018-02-24T01:46:56.190Z,71.00
2018-02-24T01:49:24.675Z,71.05
2018-02-24T01:51:53.166Z,70.96
2018-02-24T01:54:21.643Z,71.25
2018-02-24T01:56:50.137Z,71.29
2018-02-24T01:59:18.585Z,71.20
2018-02-24T02:01:47.074Z,70.73
2018-02-24T02:04:15.555Z,70.90
2018-02-24T02:06:44.098Z,70.52
2018-02-24T02:09:12.574Z,70.27
2018-02-24T02:11:41.070Z,70.21
2018-02-24T02:14:09.562Z,70.46
2018-02-24T02:16:38.032Z,70.49
2018-02-24T02:19:06.500Z,71.55
2018-02-24T02:21:35.080Z,72.13
2018-02-24T02:24:03.598Z,71.03
2018-02-24T02:26:32.057Z,71.53
2018-02-24T02:29:00.550Z,72.11
2018-02-24T02:31:29.014Z,71.29
2018-02-24T02:33:57.538Z,71.25
2018-02-24T02:36:26.060Z,70.77
2018-02-24T02:38:54.558Z,70.68
2018-02-24T02:41:23.075Z,70.42
2018-02-24T02:43:51.570Z,71.40
2018-02-24T02:46:20.065Z,71.32
2018-02-24T02:48:48.526Z,70.84
2018-02-24T02:51:17.032Z,70.71
2018-02-24T02:53:45.507Z,70.39
2018-02-24T02:56:13.998Z,70.26
2018-02-24T02:58:42.505Z,70.05
2018-02-24T03:01:10.953Z,69.87
2018-02-24T03:03:39.458Z,69.81
2018-02-24T03:06:07.985Z,69.64
2018-02-24T03:08:36.442Z,69.65
2018-02-24T03:11:04.979Z,70.57
2018-02-24T03:13:33.483Z,70.94
2018-02-24T03:16:01.991Z,70.29
2018-02-24T03:18:30.465Z,70.09
2018-02-24T03:20:58.917Z,69.79
2018-02-24T03:23:27.405Z,69.91
2018-02-24T03:25:55.905Z,69.67
2018-02-24T03:28:24.394Z,69.59
2018-02-24T03:30:52.903Z,69.81
2018-02-24T03:33:21.421Z,69.81
2018-02-24T03:35:49.882Z,69.53
2018-02-24T03:38:18.382Z,69.44
2018-02-24T03:40:46.905Z,69.37
2018-02-24T03:43:15.357Z,69.27
2018-02-24T03:45:53.796Z,69.47
2018-02-24T03:48:22.258Z,69.51
2018-02-24T03:50:50.737Z,69.42
2018-02-24T03:53:19.200Z,69.29
2018-02-24T03:55:47.689Z,69.36
2018-02-24T03:58:16.187Z,69.38
2018-02-24T04:00:44.674Z,69.25
2018-02-24T04:03:13.228Z,69.24
2018-02-24T04:05:41.706Z,69.21
2018-02-24T04:08:10.157Z,69.49
2018-02-24T04:10:38.702Z,69.45
2018-02-24T04:13:07.216Z,69.28
2018-02-24T04:15:35.721Z,69.30
2018-02-24T04:18:04.268Z,69.55
2018-02-24T04:20:32.725Z,69.25
2018-02-24T04:23:01.214Z,69.24
2018-02-24T04:25:29.670Z,69.24
2018-02-24T04:27:58.164Z,69.34
2018-02-24T04:30:26.626Z,69.42
2018-02-24T04:32:55.122Z,69.77
2018-02-24T04:35:23.644Z,69.69
2018-02-24T04:37:52.102Z,69.65
2018-02-24T04:40:20.617Z,69.63
2018-02-24T04:42:49.114Z,69.62
2018-02-24T04:45:17.610Z,69.50
2018-02-24T04:47:46.100Z,69.69
2018-02-24T04:50:14.617Z,69.59
2018-02-24T04:52:43.115Z,69.76
2018-02-24T04:55:11.571Z,69.72
2018-02-24T04:57:40.065Z,69.77
2018-02-24T05:00:08.614Z,69.75
2018-02-24T05:02:37.153Z,70.26
2018-02-24T05:05:05.644Z,70.46
2018-02-24T05:07:34.154Z,69.91
2018-02-24T05:10:02.634Z,71.65
2018-02-24T05:12:31.108Z,70.99
2018-02-24T05:14:59.601Z,70.26
2018-02-24T05:17:28.111Z,70.18
2018-02-24T05:19:56.602Z,71.27
2018-02-24T05:22:25.106Z,70.51
2018-02-24T05:24:53.575Z,70.31
2018-02-24T05:27:22.103Z,70.33
2018-02-24T05:29:50.598Z,70.17
2018-02-24T05:32:19.069Z,70.06
2018-02-24T05:34:47.570Z,70.31
2018-02-24T05:37:16.080Z,70.83
2018-02-24T05:39:44.557Z,70.83
2018-02-24T05:42:13.045Z,70.41
2018-02-24T05:44:41.578Z,70.41
2018-02-24T05:47:10.050Z,70.35
2018-02-24T05:49:38.576Z,72.07
2018-02-24T05:52:07.101Z,71.43
2018-02-24T05:54:35.560Z,71.02
2018-02-24T05:57:04.070Z,71.19
2018-02-24T05:59:32.594Z,70.73
2018-02-24T06:02:01.087Z,70.89
2018-02-24T06:04:29.597Z,71.16
2018-02-24T06:06:58.079Z,71.17
2018-02-24T06:09:26.583Z,70.67
2018-02-24T06:11:55.078Z,71.05
2018-02-24T06:14:23.577Z,70.77
2018-02-24T06:16:52.041Z,70.69
2018-02-24T06:19:20.574Z,70.75
2018-02-24T06:21:49.046Z,70.62
2018-02-24T06:24:17.501Z,70.55
2018-02-24T06:26:46.027Z,70.46
2018-02-24T06:29:14.481Z,70.64
2018-02-24T06:31:42.939Z,70.50
2018-02-24T06:34:11.460Z,71.07
2018-02-24T06:36:39.982Z,70.93
2018-02-24T06:39:08.507Z,70.74
2018-02-24T06:41:37.011Z,70.55
2018-02-24T06:44:05.505Z,70.68
2018-02-24T06:46:33.966Z,70.29
2018-02-24T06:49:02.458Z,70.88
2018-02-24T06:51:30.990Z,70.58
2018-02-24T06:53:59.446Z,70.39
2018-02-24T06:56:27.953Z,70.59
2018-02-24T06:58:56.447Z,71.01
2018-02-24T07:01:24.952Z,71.02
2018-02-24T07:03:53.414Z,71.19
2018-02-24T07:06:21.914Z,71.55
2018-02-24T07:08:50.436Z,71.57
2018-02-24T07:11:18.918Z,71.07
2018-02-24T07:13:47.450Z,71.12
2018-02-24T07:16:15.914Z,71.04
2018-02-24T07:18:44.445Z,70.92
2018-02-24T07:21:12.913Z,71.09
2018-02-24T07:23:41.419Z,71.02
2018-02-24T07:26:09.894Z,71.00
2018-02-24T07:28:38.390Z,70.95
2018-02-24T07:31:06.882Z,71.01
2018-02-24T07:33:35.370Z,70.98
2018-02-24T07:36:03.862Z,70.84
2018-02-24T07:38:32.342Z,70.95
2018-02-24T07:41:00.842Z,70.80
2018-02-24T07:43:29.342Z,71.05
2018-02-24T07:45:57.802Z,70.46
2018-02-24T07:48:26.310Z,70.45
2018-02-24T07:50:54.766Z,70.45
2018-02-24T07:53:23.266Z,70.19
2018-02-24T07:55:51.722Z,70.20
2018-02-24T07:58:20.178Z,70.38
2018-02-24T08:00:48.673Z,70.54
2018-02-24T08:03:17.130Z,70.08
2018-02-24T08:05:45.635Z,69.76
2018-02-24T08:08:14.098Z,69.72
2018-02-24T08:10:42.599Z,69.65
2018-02-24T08:13:11.087Z,69.65
2018-02-24T08:15:39.544Z,69.69
2018-02-24T08:18:08.057Z,70.18
2018-02-24T08:20:36.528Z,69.88
2018-02-24T08:23:05.023Z,69.49
2018-02-24T08:25:33.494Z,69.65
2018-02-24T08:28:02.013Z,69.31
2018-02-24T08:30:30.518Z,68.98
2018-02-24T08:32:58.990Z,68.54
2018-02-24T08:35:27.446Z,68.85
2018-02-24T08:37:55.951Z,68.83
2018-02-24T08:40:24.511Z,69.06
2018-02-24T08:42:52.973Z,68.71
2018-02-24T08:45:21.466Z,68.45
2018-02-24T08:47:49.974Z,68.26
2018-02-24T08:50:18.450Z,67.49
2018-02-24T08:52:46.943Z,68.13
2018-02-24T08:55:15.445Z,68.64
2018-02-24T08:57:43.968Z,68.29
2018-02-24T09:00:12.430Z,67.35
2018-02-24T09:02:40.933Z,67.47
2018-02-24T09:05:09.404Z,67.45
2018-02-24T09:07:37.916Z,67.62
2018-02-24T09:10:06.425Z,67.23
2018-02-24T09:12:34.892Z,67.61
2018-02-24T09:15:03.403Z,67.06
2018-02-24T09:17:31.908Z,66.45
2018-02-24T09:20:00.369Z,66.03
2018-02-24T09:22:28.872Z,67.28
2018-02-24T09:24:57.336Z,66.95
2018-02-24T09:27:25.840Z,66.37
2018-02-24T09:29:54.298Z,66.58
2018-02-24T09:32:22.786Z,65.51
2018-02-24T09:34:51.287Z,65.87
2018-02-24T09:37:19.754Z,65.90
2018-02-24T09:39:48.249Z,65.72
2018-02-24T09:42:16.710Z,65.77
2018-02-24T09:44:45.183Z,65.47
2018-02-24T09:47:13.647Z,65.03
2018-02-24T09:49:42.137Z,64.23
2018-02-24T09:52:10.646Z,64.89
2018-02-24T09:54:39.109Z,63.41
2018-02-24T09:57:07.566Z,64.50
2018-02-24T09:59:36.058Z,63.91
2018-02-24T10:02:04.523Z,64.48
2018-02-24T10:04:33.034Z,62.71
2018-02-24T10:07:01.535Z,64.10
2018-02-24T10:09:30.023Z,64.37
2018-02-24T10:11:58.758Z,64.40
2018-02-24T10:14:27.253Z,63.52
2018-02-24T10:16:55.746Z,63.73
2018-02-24T10:19:24.212Z,63.41
2018-02-24T10:21:52.710Z,63.55
2018-02-24T10:24:21.166Z,62.56
2018-02-24T10:26:49.665Z,62.94
2018-02-24T10:29:18.136Z,62.63
2018-02-24T10:31:46.637Z,63.02
2018-02-24T10:34:15.122Z,63.05
2018-02-24T10:36:43.621Z,62.04
2018-02-24T10:39:12.109Z,63.54
2018-02-24T10:41:40.566Z,63.12
2018-02-24T10:44:09.062Z,62.95
2018-02-24T10:46:37.527Z,63.09
2018-02-24T10:49:15.660Z,63.97
2018-02-24T10:51:44.114Z,64.50
2018-02-24T10:54:12.620Z,63.32
2018-02-24T10:56:41.086Z,62.90
2018-02-24T10:59:09.582Z,62.88
2018-02-24T11:01:38.043Z,62.88
2018-02-24T11:04:06.567Z,62.78
2018-02-24T11:06:35.011Z,62.63
2018-02-24T11:09:03.536Z,63.64
2018-02-24T11:11:32.000Z,62.86
2018-02-24T11:14:00.497Z,62.78
2018-02-24T11:16:28.943Z,61.70
2018-02-24T11:18:57.430Z,62.07
2018-02-24T11:21:25.956Z,61.20
2018-02-24T11:23:54.427Z,62.49
2018-02-24T11:26:22.928Z,61.74
2018-02-24T11:28:51.422Z,60.80
2018-02-24T11:31:19.905Z,61.62
2018-02-24T11:33:48.359Z,60.87
2018-02-24T11:36:16.862Z,61.07
2018-02-24T11:38:45.321Z,60.92
2018-02-24T11:41:13.809Z,60.59
2018-02-24T11:43:42.334Z,58.29
2018-02-24T11:46:10.830Z,60.25
2018-02-24T11:48:39.321Z,57.58
2018-02-24T11:51:07.778Z,59.22
2018-02-24T11:53:36.305Z,59.77
2018-02-24T11:56:04.762Z,59.18
2018-02-24T11:58:33.245Z,59.61
2018-02-24T12:01:01.762Z,58.67
2018-02-24T12:03:30.246Z,58.45
2018-02-24T12:05:58.714Z,59.23
2018-02-24T12:08:27.206Z,58.23
2018-02-24T12:10:55.658Z,59.08
2018-02-24T12:13:24.222Z,58.63
2018-02-24T12:15:52.682Z,58.87
2018-02-24T12:18:21.178Z,58.93
2018-02-24T12:20:49.644Z,58.93
2018-02-24T12:23:18.125Z,59.13
2018-02-24T12:25:46.592Z,59.23
2018-02-24T12:28:15.126Z,59.27
2018-02-24T12:30:43.590Z,59.11
2018-02-24T12:33:12.089Z,58.30
2018-02-24T12:35:40.550Z,58.42
2018-02-24T12:38:09.057Z,59.31
2018-02-24T12:40:37.554Z,58.65
2018-02-24T12:43:06.054Z,59.00
2018-02-24T12:45:34.550Z,58.79
2018-02-24T12:48:03.051Z,58.44
2018-02-24T12:50:31.513Z,58.04
2018-02-24T12:53:00.025Z,58.81
2018-02-24T12:55:28.498Z,59.05
2018-02-24T12:57:56.959Z,57.53
2018-02-24T13:00:25.474Z,58.51
2018-02-24T13:02:53.973Z,58.29
2018-02-24T13:05:22.484Z,56.95
2018-02-24T13:07:50.942Z,56.91
2018-02-24T13:10:19.443Z,58.19
2018-02-24T13:12:47.902Z,58.23
2018-02-24T13:15:16.398Z,57.72
2018-02-24T13:17:44.890Z,57.30
2018-02-24T13:20:13.346Z,57.79
2018-02-24T13:22:41.839Z,57.28
2018-02-24T13:25:10.298Z,57.68
2018-02-24T13:27:38.795Z,57.22
2018-02-24T13:30:07.264Z,58.10
2018-02-24T13:32:35.758Z,58.31
2018-02-24T13:35:04.217Z,58.45
2018-02-24T13:37:32.741Z,58.47
2018-02-24T13:40:01.213Z,58.53
2018-02-24T13:42:29.719Z,59.08
2018-02-24T13:44:58.185Z,58.46
2018-02-24T13:47:26.706Z,58.57
2018-02-24T13:49:55.198Z,58.49
2018-02-24T13:52:23.692Z,58.38
2018-02-24T13:54:52.153Z,58.26
2018-02-24T13:57:20.660Z,58.94
2018-02-24T13:59:49.146Z,59.31
2018-02-24T14:02:17.606Z,59.47
2018-02-24T14:04:46.101Z,59.35
2018-02-24T14:07:14.557Z,59.38
2018-02-24T14:09:43.066Z,59.25
2018-02-24T14:12:11.566Z,59.44
2018-02-24T14:14:40.037Z,59.70
2018-02-24T14:17:08.559Z,60.36
2018-02-24T14:19:37.037Z,60.49
2018-02-24T14:22:05.490Z,59.90
2018-02-24T14:24:34.004Z,60.24
2018-02-24T14:27:02.506Z,60.13
2018-02-24T14:29:30.958Z,60.02
2018-02-24T14:31:59.415Z,60.81
2018-02-24T14:34:27.910Z,61.37
2018-02-24T14:36:56.410Z,60.72
2018-02-24T14:39:24.922Z,61.79
2018-02-24T14:41:53.375Z,61.13
2018-02-24T14:44:21.854Z,60.72
2018-02-24T14:46:50.343Z,60.82
2018-02-24T14:49:18.801Z,61.30
2018-02-24T14:51:47.289Z,61.35
2018-02-24T14:54:15.746Z,61.26
2018-02-24T14:56:44.257Z,60.86
2018-02-24T14:59:12.713Z,61.06
2018-02-24T15:01:41.166Z,61.02
2018-02-24T15:04:09.654Z,61.41
2018-02-24T15:06:38.182Z,61.18
2018-02-24T15:09:06.675Z,61.03
2018-02-24T15:11:35.292Z,61.44
2018-02-24T15:14:03.786Z,61.48
2018-02-24T15:16:32.289Z,61.34
2018-02-24T15:19:00.746Z,61.39
2018-02-24T15:21:29.261Z,61.51
2018-02-24T15:23:57.714Z,61.81
2018-02-24T15:26:26.215Z,61.52
2018-02-24T15:28:54.734Z,61.42
2018-02-24T15:31:23.198Z,62.16
2018-02-24T15:33:51.698Z,61.92
2018-02-24T15:36:20.230Z,61.94
2018-02-24T15:38:48.706Z,61.58
2018-02-24T15:41:17.206Z,61.46
2018-02-24T15:43:45.647Z,61.90
2018-02-24T15:46:14.122Z,61.71
2018-02-24T15:48:42.656Z,61.55
2018-02-24T15:51:11.110Z,61.62
2018-02-24T15:53:39.610Z,61.60
2018-02-24T15:56:08.098Z,61.39
2018-02-24T15:58:36.594Z,61.88
2018-02-24T16:01:05.088Z,61.51
2018-02-24T16:03:33.577Z,61.31
2018-02-24T16:06:02.069Z,61.00
2018-02-24T16:08:30.584Z,61.85
2018-02-24T16:10:59.086Z,61.69
2018-02-24T16:13:27.571Z,61.50
2018-02-24T16:15:56.075Z,61.81
2018-02-24T16:18:24.542Z,61.83
2018-02-24T16:20:53.052Z,61.67
2018-02-24T16:23:21.510Z,61.70
2018-02-24T16:25:49.970Z,62.42
2018-02-24T16:28:18.467Z,62.19
2018-02-24T16:30:46.951Z,62.29
2018-02-24T16:33:15.443Z,62.59
2018-02-24T16:35:43.902Z,62.56
2018-02-24T16:38:12.394Z,62.60
2018-02-24T16:40:40.891Z,63.65
2018-02-24T16:43:09.354Z,64.10
2018-02-24T16:45:37.868Z,64.62
2018-02-24T16:48:06.321Z,63.65
2018-02-24T16:50:35.409Z,63.51
2018-02-24T16:53:03.975Z,63.44
2018-02-24T16:55:32.417Z,63.07
2018-02-24T16:58:00.871Z,63.17
2018-02-24T17:00:29.420Z,62.99
2018-02-24T17:02:57.941Z,63.17
2018-02-24T17:05:26.410Z,63.07
2018-02-24T17:07:54.915Z,63.00
2018-02-24T17:10:23.391Z,62.93
2018-02-24T17:12:51.887Z,63.47
2018-02-24T17:15:20.348Z,63.19
2018-02-24T17:17:48.842Z,63.54
2018-02-24T17:20:17.313Z,63.51
2018-02-24T17:22:45.851Z,63.90
2018-02-24T17:25:14.346Z,64.29
2018-02-24T17:27:42.866Z,64.71
2018-02-24T17:30:11.326Z,64.55
2018-02-24T17:32:39.855Z,65.13
2018-02-24T17:35:08.345Z,64.82
2018-02-24T17:37:36.822Z,64.95
2018-02-24T17:40:05.331Z,64.61
2018-02-24T17:42:33.850Z,65.66
2018-02-24T17:45:02.321Z,65.92
2018-02-24T17:47:30.830Z,66.35
2018-02-24T17:49:59.306Z,66.62
2018-02-24T17:52:27.758Z,65.54
2018-02-24T17:54:56.278Z,65.73
2018-02-24T17:57:24.757Z,69.41
2018-02-24T17:59:53.214Z,68.14
2018-02-24T18:02:21.706Z,67.66
2018-02-24T18:04:50.211Z,66.75
2018-02-24T18:07:18.731Z,67.64
2018-02-24T18:09:47.191Z,68.09
2018-02-24T18:12:15.693Z,67.44
2018-02-24T18:14:44.180Z,67.33
2018-02-24T18:17:12.678Z,68.08
2018-02-24T18:19:41.188Z,67.44
2018-02-24T18:22:09.688Z,68.38
2018-02-24T18:24:38.150Z,68.32
2018-02-24T18:27:06.655Z,68.77
2018-02-24T18:29:35.146Z,68.36
2018-02-24T18:32:03.601Z,67.68
2018-02-24T18:34:32.095Z,68.49
2018-02-24T18:37:00.582Z,69.83
2018-02-24T18:39:29.073Z,68.33
2018-02-24T18:41:57.531Z,68.31
2018-02-24T18:44:26.083Z,67.91
2018-02-24T18:46:54.595Z,69.30
2018-02-24T18:49:23.068Z,68.82
2018-02-24T18:51:51.562Z,67.67
2018-02-24T18:54:20.058Z,67.82
2018-02-24T18:56:48.517Z,69.40
2018-02-24T18:59:16.970Z,69.08
2018-02-24T19:01:45.467Z,69.05
2018-02-24T19:04:13.986Z,68.80
2018-02-24T19:06:42.518Z,68.09
2018-02-24T19:09:10.974Z,69.05
2018-02-24T19:11:39.472Z,68.40
2018-02-24T19:14:07.953Z,69.32
2018-02-24T19:16:36.450Z,69.46
2018-02-24T19:19:04.941Z,69.09
2018-02-24T19:21:33.398Z,69.53
2018-02-24T19:24:01.898Z,68.78
2018-02-24T19:26:30.350Z,68.09
2018-02-24T19:28:58.814Z,69.20
2018-02-24T19:31:27.334Z,68.64
2018-02-24T19:33:55.826Z,70.27
2018-02-24T19:36:24.282Z,70.78
2018-02-24T19:38:52.783Z,68.77
2018-02-24T19:41:21.279Z,68.98
2018-02-24T19:43:49.746Z,69.29
2018-02-24T19:46:18.220Z,68.88
2018-02-24T19:48:46.714Z,68.81
2018-02-24T19:51:15.174Z,69.42
2018-02-24T19:53:43.666Z,69.41
2018-02-24T19:56:12.131Z,69.49
2018-02-24T19:58:40.636Z,70.07
2018-02-24T20:01:09.098Z,69.51
2018-02-24T20:03:37.585Z,69.70
2018-02-24T20:06:06.077Z,69.56
2018-02-24T20:08:34.584Z,69.29
2018-02-24T20:11:03.042Z,69.33
2018-02-24T20:13:31.534Z,69.40
2018-02-24T20:15:59.994Z,70.23
2018-02-24T20:18:28.480Z,69.16
2018-02-24T20:20:56.938Z,68.56
2018-02-24T20:23:25.432Z,69.76
2018-02-24T20:25:53.955Z,68.89
2018-02-24T20:28:22.419Z,69.35
2018-02-24T20:30:50.910Z,68.81
2018-02-24T20:33:19.376Z,69.20
2018-02-24T20:35:47.867Z,68.84
2018-02-24T20:38:16.334Z,68.88
2018-02-24T20:40:44.840Z,68.45
2018-02-24T20:43:13.306Z,68.45
2018-02-24T20:45:41.785Z,68.31
2018-02-24T20:48:10.314Z,69.11
2018-02-24T20:50:38.774Z,69.04
2018-02-24T20:53:07.270Z,69.07
2018-02-24T20:55:35.767Z,68.78
2018-02-24T20:58:05.018Z,69.16
2018-02-24T21:00:33.875Z,68.66
2018-02-24T21:03:02.369Z,68.52
2018-02-24T21:05:30.822Z,69.29
2018-02-24T21:07:59.299Z,68.84
2018-02-24T21:10:28.714Z,68.64
2018-02-24T21:12:57.166Z,68.95
2018-02-24T21:15:25.658Z,68.59
2018-02-24T21:17:54.158Z,68.42
2018-02-24T21:20:22.612Z,68.83
2018-02-24T21:22:51.121Z,70.16
2018-02-24T21:25:19.586Z,71.08
2018-02-24T21:27:48.054Z,71.43
2018-02-24T21:30:16.661Z,70.77
2018-02-24T21:32:45.122Z,70.52
2018-02-24T21:35:13.616Z,70.86
2018-02-24T21:37:42.128Z,70.13
2018-02-24T21:40:10.586Z,69.51
2018-02-24T21:42:39.080Z,69.63
2018-02-24T21:45:07.537Z,70.68
2018-02-24T21:47:36.040Z,70.06
2018-02-24T21:50:04.483Z,69.43
2018-02-24T21:52:32.970Z,69.73
2018-02-24T21:55:01.429Z,69.60
2018-02-24T21:57:29.958Z,70.40
2018-02-24T21:59:58.421Z,69.82
2018-02-24T22:02:26.914Z,69.56
2018-02-24T22:04:55.427Z,69.47
2018-02-24T22:07:24.543Z,70.01
2018-02-24T22:09:52.993Z,69.57
2018-02-24T22:12:21.481Z,69.21
2018-02-24T22:14:49.949Z,69.88
2018-02-24T22:17:18.442Z,69.18
2018-02-24T22:19:46.965Z,69.41
2018-02-24T22:22:15.468Z,69.43
2018-02-24T22:24:43.957Z,71.08
2018-02-24T22:27:12.450Z,72.34
2018-02-24T22:29:40.947Z,70.67
2018-02-24T22:32:09.439Z,71.93
2018-02-24T22:34:37.911Z,70.52
2018-02-24T22:37:06.402Z,72.00
2018-02-24T22:39:34.885Z,71.09
2018-02-24T22:42:03.438Z,71.25
2018-02-24T22:44:31.950Z,70.28
2018-02-24T22:47:00.412Z,71.20
2018-02-24T22:49:28.884Z,70.05
2018-02-24T22:51:57.378Z,69.84
2018-02-24T22:54:25.867Z,70.48
2018-02-24T22:56:54.324Z,72.53
2018-02-24T22:59:22.823Z,71.51
2018-02-24T23:01:51.314Z,70.60
2018-02-24T23:04:19.761Z,70.55
2018-02-24T23:06:48.222Z,70.60
2018-02-24T23:09:16.722Z,70.26
2018-02-24T23:11:45.190Z,69.89
2018-02-24T23:14:13.714Z,70.07
2018-02-24T23:16:42.166Z,70.02
2018-02-24T23:19:10.638Z,70.81
2018-02-24T23:21:39.098Z,70.43
2018-02-24T23:24:07.602Z,70.00
2018-02-24T23:26:36.066Z,69.90
2018-02-24T23:29:05.410Z,69.94
2018-02-24T23:31:33.958Z,70.07
2018-02-24T23:34:02.457Z,69.90
2018-02-24T23:36:30.953Z,69.72
2018-02-24T23:38:59.451Z,69.55
2018-02-24T23:41:27.915Z,69.67
2018-02-24T23:43:56.432Z,69.52
2018-02-24T23:46:24.897Z,69.35
2018-02-24T23:48:53.352Z,69.63
2018-02-24T23:51:21.886Z,69.31
2018-02-24T23:53:50.357Z,69.19
2018-02-24T23:56:18.857Z,69.05
2018-02-24T23:58:47.352Z,68.94
